createdAt,value
2018-01-22T00:00:09.117Z,8.53
2018-01-22T00:02:15.361Z,7.80
2018-01-22T00:04:21.170Z,7.40
2018-01-22T00:06:30.966Z,7.70
2018-01-22T00:08:38.055Z,7.57
2018-01-22T00:10:47.941Z,7.60
2018-01-22T00:12:55.429Z,7.53
2018-01-22T00:15:02.708Z,7.83
2018-01-22T00:17:09.524Z,6.90
2018-01-22T00:19:18.103Z,7.07
2018-01-22T00:21:28.142Z,6.60
2018-01-22T00:23:36.463Z,7.13
2018-01-22T00:25:43.264Z,7.10
2018-01-22T00:27:50.759Z,8.07
2018-01-22T00:29:57.530Z,6.60
2018-01-22T00:32:03.720Z,7.20
2018-01-22T00:34:11.803Z,6.90
2018-01-22T00:36:19.968Z,7.90
2018-01-22T00:38:29.928Z,7.07
2018-01-22T00:40:37.448Z,7.00
2018-01-22T00:42:44.189Z,6.80
2018-01-22T00:44:51.852Z,7.07
2018-01-22T00:46:59.744Z,6.20
2018-01-22T00:49:08.744Z,6.37
2018-01-22T00:51:17.485Z,5.70
2018-01-22T00:53:26.800Z,7.07
2018-01-22T00:55:33.695Z,6.53
2018-01-22T00:57:40.890Z,6.90
2018-01-22T00:59:49.281Z,7.30
2018-01-22T01:01:55.322Z,7.13
2018-01-22T01:04:01.329Z,6.50
2018-01-22T01:06:07.032Z,6.20
2018-01-22T01:08:12.727Z,6.43
2018-01-22T01:10:19.392Z,6.50
2018-01-22T01:12:28.506Z,6.73
2018-01-22T01:14:34.177Z,6.37
2018-01-22T01:16:40.108Z,6.50
2018-01-22T01:18:45.873Z,6.33
2018-01-22T01:20:51.705Z,5.93
2018-01-22T01:22:57.835Z,6.30
2018-01-22T01:25:04.034Z,6.50
2018-01-22T01:27:09.770Z,6.10
2018-01-22T01:29:15.943Z,6.37
2018-01-22T01:31:21.606Z,5.83
2018-01-22T01:33:29.409Z,6.77
2018-01-22T01:35:35.626Z,6.47
2018-01-22T01:37:41.308Z,6.23
2018-01-22T01:39:46.962Z,6.40
2018-01-22T01:41:52.757Z,5.90
2018-01-22T01:43:58.420Z,5.77
2018-01-22T01:46:04.163Z,6.20
2018-01-22T01:48:10.123Z,6.53
2018-01-22T01:50:15.773Z,5.70
2018-01-22T01:52:22.056Z,6.10
2018-01-22T01:54:32.237Z,6.10
2018-01-22T01:56:38.311Z,7.23
2018-01-22T01:58:44.397Z,5.80
2018-01-22T02:00:51.042Z,6.77
2018-01-22T02:02:56.907Z,6.50
2018-01-22T02:05:03.514Z,5.80
2018-01-22T02:07:11.087Z,7.03
2018-01-22T02:09:16.928Z,6.63
2018-01-22T02:11:26.220Z,6.87
2018-01-22T02:13:31.978Z,6.30
2018-01-22T02:15:37.900Z,6.00
2018-01-22T02:17:44.363Z,6.70
2018-01-22T02:19:52.251Z,6.70
2018-01-22T02:21:58.927Z,6.50
2018-01-22T02:24:05.653Z,6.80
2018-01-22T02:26:12.898Z,6.67
2018-01-22T02:28:19.464Z,6.60
2018-01-22T02:30:29.097Z,6.60
2018-01-22T02:32:34.688Z,7.00
2018-01-22T02:34:40.550Z,5.97
2018-01-22T02:36:46.630Z,7.07
2018-01-22T02:38:52.990Z,6.63
2018-01-22T02:40:59.445Z,7.60
2018-01-22T02:43:05.490Z,6.77
2018-01-22T02:45:11.431Z,7.00
2018-01-22T02:47:17.162Z,7.20
2018-01-22T02:49:23.285Z,7.53
2018-01-22T02:51:31.474Z,7.07
2018-01-22T02:53:37.207Z,7.23
2018-01-22T02:55:45.057Z,6.13
2018-01-22T02:57:53.012Z,7.83
2018-01-22T03:00:00.469Z,7.40
2018-01-22T03:02:06.293Z,6.87
2018-01-22T03:04:12.019Z,7.10
2018-01-22T03:06:17.662Z,7.27
2018-01-22T03:08:23.254Z,6.53
2018-01-22T03:10:31.778Z,7.23
2018-01-22T03:12:37.487Z,6.87
2018-01-22T03:14:43.188Z,7.43
2018-01-22T03:16:49.128Z,7.33
2018-01-22T03:18:55.493Z,7.13
2018-01-22T03:21:01.054Z,6.90
2018-01-22T03:23:07.239Z,6.80
2018-01-22T03:25:12.904Z,6.50
2018-01-22T03:27:18.381Z,7.10
2018-01-22T03:29:26.146Z,6.90
2018-01-22T03:31:31.749Z,7.90
2018-01-22T03:33:43.190Z,7.27
2018-01-22T03:35:48.979Z,7.60
2018-01-22T03:37:54.991Z,7.03
2018-01-22T03:40:00.871Z,7.40
2018-01-22T03:42:06.445Z,6.87
2018-01-22T03:44:12.503Z,7.07
2018-01-22T03:46:18.694Z,6.93
2018-01-22T03:48:27.317Z,6.97
2018-01-22T03:50:33.242Z,6.97
2018-01-22T03:52:38.942Z,6.47
2018-01-22T03:54:45.590Z,7.73
2018-01-22T03:56:52.006Z,7.00
2018-01-22T03:58:59.630Z,6.63
2018-01-22T04:01:05.503Z,7.20
2018-01-22T04:03:11.785Z,7.03
2018-01-22T04:05:17.883Z,6.73
2018-01-22T04:07:23.502Z,6.70
2018-01-22T04:09:30.998Z,6.40
2018-01-22T04:11:36.730Z,6.30
2018-01-22T04:13:42.363Z,7.10
2018-01-22T04:15:48.086Z,6.90
2018-01-22T04:17:54.006Z,6.30
2018-01-22T04:19:59.682Z,6.83
2018-01-22T04:22:05.489Z,6.37
2018-01-22T04:24:12.712Z,6.00
2018-01-22T04:26:18.367Z,5.90
2018-01-22T04:28:28.948Z,5.83
2018-01-22T04:30:34.675Z,5.93
2018-01-22T04:32:41.599Z,5.73
2018-01-22T04:34:47.252Z,5.73
2018-01-22T04:36:56.121Z,4.77
2018-01-22T04:39:02.686Z,5.60
2018-01-22T04:41:08.434Z,6.17
2018-01-22T04:43:14.094Z,5.53
2018-01-22T04:45:21.357Z,5.80
2018-01-22T04:47:29.730Z,5.80
2018-01-22T04:49:35.661Z,5.07
2018-01-22T04:51:41.854Z,5.63
2018-01-22T04:53:47.750Z,5.47
2018-01-22T04:55:56.520Z,5.10
2018-01-22T04:58:09.576Z,5.20
2018-01-22T05:00:50.041Z,4.93
2018-01-22T05:03:04.749Z,5.10
2018-01-22T05:05:14.251Z,4.80
2018-01-22T05:07:31.616Z,4.87
2018-01-22T05:09:40.386Z,4.57
2018-01-22T05:11:51.078Z,4.17
2018-01-22T05:13:58.202Z,4.70
2018-01-22T05:16:10.560Z,4.30
2018-01-22T05:18:19.253Z,4.20
2018-01-22T05:20:30.111Z,3.70
2018-01-22T05:22:35.909Z,4.30
2018-01-22T05:24:42.514Z,4.23
2018-01-22T05:26:49.026Z,4.00
2018-01-22T05:28:55.847Z,4.47
2018-01-22T05:31:02.741Z,4.00
2018-01-22T05:33:09.277Z,4.27
2018-01-22T05:35:16.411Z,4.03
2018-01-22T05:37:26.841Z,4.20
2018-01-22T05:39:34.738Z,3.83
2018-01-22T05:41:41.944Z,4.00
2018-01-22T05:43:49.219Z,4.00
2018-01-22T05:45:58.004Z,3.73
2018-01-22T05:48:05.995Z,3.80
2018-01-22T05:50:12.992Z,3.80
2018-01-22T05:52:19.411Z,3.57
2018-01-22T05:54:28.787Z,3.40
2018-01-22T05:56:35.396Z,2.93
2018-01-22T05:58:41.876Z,3.73
2018-01-22T06:00:48.102Z,3.50
2018-01-22T06:02:54.290Z,3.30
2018-01-22T06:05:00.586Z,3.57
2018-01-22T06:07:07.243Z,3.73
2018-01-22T06:09:15.863Z,3.67
2018-01-22T06:11:28.600Z,3.40
2018-01-22T06:13:36.646Z,3.27
2018-01-22T06:15:44.571Z,3.50
2018-01-22T06:17:50.478Z,2.90
2018-01-22T06:19:56.561Z,3.37
2018-01-22T06:22:02.946Z,3.57
2018-01-22T06:24:08.710Z,2.97
2018-01-22T06:26:16.233Z,3.33
2018-01-22T06:28:22.459Z,3.27
2018-01-22T06:30:28.450Z,3.30
2018-01-22T06:32:34.747Z,3.43
2018-01-22T06:34:41.787Z,3.60
2018-01-22T06:36:47.454Z,3.40
2018-01-22T06:38:53.464Z,3.73
2018-01-22T06:40:59.585Z,3.90
2018-01-22T06:43:07.407Z,3.60
2018-01-22T06:45:14.395Z,3.30
2018-01-22T06:47:20.798Z,3.10
2018-01-22T06:49:28.239Z,3.27
2018-01-22T06:51:34.154Z,3.50
2018-01-22T06:53:40.366Z,3.57
2018-01-22T06:55:47.342Z,3.20
2018-01-22T06:57:53.111Z,3.83
2018-01-22T07:00:00.201Z,3.50
2018-01-22T07:02:05.978Z,3.00
2018-01-22T07:04:11.687Z,3.97
2018-01-22T07:10:19.316Z,3.03
2018-01-22T07:12:26.374Z,2.77
2018-01-22T07:14:34.048Z,3.27
2018-01-22T07:16:42.506Z,2.70
2018-01-22T07:18:49.312Z,3.13
2018-01-22T07:20:55.058Z,2.90
2018-01-22T07:23:00.997Z,2.87
2018-01-22T07:25:07.378Z,3.03
2018-01-22T07:27:13.171Z,2.93
2018-01-22T07:29:18.839Z,3.27
2018-01-22T07:31:26.439Z,2.67
2018-01-22T07:33:33.323Z,3.50
2018-01-22T07:35:38.980Z,2.77
2018-01-22T07:37:44.933Z,3.50
2018-01-22T07:39:50.546Z,3.27
2018-01-22T07:41:57.081Z,3.40
2018-01-22T07:44:03.041Z,2.80
2018-01-22T07:46:09.051Z,3.17
2018-01-22T07:48:14.799Z,2.87
2018-01-22T07:50:21.724Z,4.17
2018-01-22T07:52:30.114Z,130.57
2018-01-22T07:54:35.802Z,206.93
2018-01-22T07:56:41.975Z,791.73
2018-01-22T07:58:47.909Z,982.17
2018-01-22T08:00:53.690Z,33.97
2018-01-22T08:02:59.626Z,100.60
2018-01-22T08:05:06.107Z,205.97
2018-01-22T08:07:12.267Z,10.00
2018-01-22T08:09:18.391Z,6.63
2018-01-22T08:11:26.097Z,6.90
2018-01-22T08:13:32.995Z,640.40
2018-01-22T08:15:38.831Z,10.97
2018-01-22T08:17:44.776Z,6.33
2018-01-22T08:19:51.125Z,5.53
2018-01-22T08:21:58.480Z,5.27
2018-01-22T08:24:05.252Z,633.93
2018-01-22T08:26:12.896Z,305.27
2018-01-22T08:28:38.810Z,769.73
2018-01-22T08:30:51.177Z,825.87
2018-01-22T08:35:31.550Z,84.17
2018-01-22T08:37:37.682Z,92.47
2018-01-22T08:39:46.038Z,102.47
2018-01-22T08:41:59.481Z,614.07
2018-01-22T08:44:05.802Z,671.50
2018-01-22T08:46:11.944Z,235.23
2018-01-22T08:48:17.916Z,990.50
2018-01-22T08:50:26.054Z,177.17
2018-01-22T08:52:33.547Z,51.37
2018-01-22T08:54:40.654Z,20.97
2018-01-22T08:56:47.028Z,290.00
2018-01-22T08:58:53.226Z,320.20
2018-01-22T09:00:59.481Z,21.60
2018-01-22T09:03:06.418Z,36.27
2018-01-22T09:05:13.329Z,103.93
2018-01-22T09:07:19.189Z,36.83
2018-01-22T09:09:27.149Z,576.77
2018-01-22T09:11:34.229Z,217.30
2018-01-22T09:13:42.762Z,111.20
2018-01-22T09:15:56.566Z,82.77
2018-01-22T09:18:03.184Z,870.00
2018-01-22T09:20:13.267Z,167.07
2018-01-22T09:22:18.981Z,97.20
2018-01-22T09:24:27.425Z,109.37
2018-01-22T09:26:33.535Z,815.33
2018-01-22T09:28:41.233Z,906.63
2018-01-22T09:30:47.978Z,176.00
2018-01-22T09:35:37.465Z,482.93
2018-01-22T09:37:43.706Z,118.37
2018-01-22T09:40:01.268Z,53.53
2018-01-22T09:42:09.932Z,814.50
2018-01-22T09:47:53.213Z,23.07
2018-01-22T09:49:59.232Z,239.23
2018-01-22T09:52:07.122Z,34.70
2018-01-22T09:54:13.744Z,29.70
2018-01-22T09:56:19.974Z,34.70
2018-01-22T09:58:25.818Z,10.80
2018-01-22T10:00:35.797Z,254.70
2018-01-22T10:02:42.119Z,799.13
2018-01-22T10:04:48.384Z,67.50
2018-01-22T10:06:56.612Z,15.40
2018-01-22T10:09:02.894Z,20.30
2018-01-22T10:11:09.141Z,6.67
2018-01-22T10:13:14.987Z,150.80
2018-01-22T10:15:21.501Z,54.87
2018-01-22T10:17:30.375Z,44.30
2018-01-22T10:19:36.804Z,56.03
2018-01-22T10:21:42.722Z,19.13
2018-01-22T10:23:48.463Z,135.90
2018-01-22T10:25:54.795Z,20.70
2018-01-22T10:28:21.232Z,12.70
2018-01-22T10:30:28.567Z,9.30
2018-01-22T10:32:35.469Z,7.70
2018-01-22T10:34:42.019Z,19.00
2018-01-22T10:36:50.152Z,27.60
2018-01-22T10:38:56.750Z,25.10
2018-01-22T10:41:04.349Z,24.80
2018-01-22T10:43:11.902Z,141.70
2018-01-22T10:45:18.947Z,34.33
2018-01-22T10:48:01.586Z,28.57
2018-01-22T10:50:37.351Z,54.90
2018-01-22T10:55:14.387Z,20.27
2018-01-22T10:57:21.603Z,23.80
2018-01-22T10:59:38.955Z,58.80
2018-01-22T11:01:52.233Z,103.40
2018-01-22T11:03:59.886Z,131.13
2018-01-22T11:06:15.663Z,44.90
2018-01-22T11:08:27.514Z,89.17
2018-01-22T11:10:37.753Z,17.57
2018-01-22T11:12:45.683Z,8.17
2018-01-22T11:14:54.376Z,6.17
2018-01-22T11:26:58.415Z,5.17
2018-01-22T11:29:34.394Z,31.87
2018-01-22T11:31:41.701Z,24.40
2018-01-22T11:33:51.066Z,119.77
2018-01-22T11:35:58.918Z,24.70
2018-01-22T11:38:23.176Z,24.00
2018-01-22T11:45:46.346Z,14.60
2018-01-22T11:47:52.424Z,69.07
2018-01-22T11:49:58.642Z,6.37
2018-01-22T11:52:09.609Z,4.80
2018-01-22T11:54:16.769Z,4.00
2018-01-22T11:56:22.934Z,8.53
2018-01-22T11:58:31.680Z,4.40
2018-01-22T12:00:37.736Z,7.37
2018-01-22T12:02:44.115Z,4.07
2018-01-22T12:05:11.523Z,14.00
2018-01-22T12:07:18.252Z,3.87
2018-01-22T12:09:29.065Z,3.80
2018-01-22T12:11:36.361Z,3.37
2018-01-22T12:13:42.633Z,127.40
2018-01-22T12:15:48.687Z,17.10
2018-01-22T12:17:54.981Z,9.37
2018-01-22T12:20:01.228Z,4.43
2018-01-22T12:22:07.269Z,4.83
2018-01-22T12:24:14.346Z,3.77
2018-01-22T12:26:20.123Z,11.00
2018-01-22T12:28:27.788Z,21.97
2018-01-22T12:30:34.903Z,9.70
2018-01-22T12:32:42.064Z,4.67
2018-01-22T12:34:49.679Z,3.23
2018-01-22T12:36:56.204Z,10.27
2018-01-22T12:39:04.748Z,473.73
2018-01-22T12:41:12.420Z,111.33
2018-01-22T12:43:18.333Z,28.03
2018-01-22T12:45:26.549Z,24.90
2018-01-22T12:47:32.263Z,14.77
2018-01-22T12:49:38.184Z,5.77
2018-01-22T12:51:44.648Z,782.53
2018-01-22T12:53:50.463Z,371.73
2018-01-22T12:56:02.618Z,21.07
2018-01-22T12:58:12.701Z,97.87
2018-01-22T13:00:19.636Z,13.30
2018-01-22T13:02:29.349Z,15.67
2018-01-22T13:04:39.053Z,5.60
2018-01-22T13:06:47.021Z,3.93
2018-01-22T13:08:54.515Z,3.07
2018-01-22T13:11:00.558Z,3.30
2018-01-22T13:13:06.625Z,5.53
2018-01-22T13:15:15.162Z,12.93
2018-01-22T13:17:26.894Z,380.87
2018-01-22T13:19:40.945Z,8.90
2018-01-22T13:21:50.091Z,334.53
2018-01-22T13:24:01.751Z,55.40
2018-01-22T13:26:09.139Z,37.70
2018-01-22T13:28:15.420Z,57.73
2018-01-22T13:30:22.453Z,19.20
2018-01-22T13:32:33.719Z,48.43
2018-01-22T13:34:40.095Z,11.40
2018-01-22T13:36:46.234Z,147.93
2018-01-22T13:38:52.815Z,8.00
2018-01-22T13:41:02.995Z,36.60
2018-01-22T13:43:09.924Z,349.13
2018-01-22T13:45:16.777Z,10.77
2018-01-22T13:47:24.508Z,10.10
2018-01-22T13:49:30.287Z,4.03
2018-01-22T13:51:37.082Z,3.20
2018-01-22T13:53:51.329Z,3.43
2018-01-22T13:55:57.614Z,3.10
2018-01-22T13:58:05.678Z,179.87
2018-01-22T14:00:13.543Z,697.67
2018-01-22T14:02:20.478Z,51.50
2018-01-22T14:04:29.403Z,24.90
2018-01-22T14:06:36.684Z,11.23
2018-01-22T14:08:43.120Z,53.37
2018-01-22T14:10:49.067Z,717.37
2018-01-22T14:12:55.888Z,359.23
2018-01-22T14:15:02.055Z,7.00
2018-01-22T14:17:07.934Z,238.07
2018-01-22T14:19:14.896Z,156.70
2018-01-22T14:21:21.321Z,149.93
2018-01-22T14:23:29.364Z,507.70
2018-01-22T14:25:36.368Z,53.73
2018-01-22T14:27:43.505Z,216.27
2018-01-22T14:29:50.495Z,41.00
2018-01-22T14:31:58.651Z,739.80
2018-01-22T14:34:05.359Z,59.87
2018-01-22T14:36:12.551Z,62.13
2018-01-22T14:38:19.322Z,20.50
2018-01-22T14:40:24.999Z,7.27
2018-01-22T14:42:31.772Z,37.27
2018-01-22T14:44:40.858Z,6.53
2018-01-22T14:46:47.265Z,7.80
2018-01-22T14:48:53.167Z,18.10
2018-01-22T14:51:00.276Z,555.20
2018-01-22T14:53:07.482Z,7.53
2018-01-22T14:55:14.983Z,5.13
2018-01-22T14:57:22.228Z,2.80
2018-01-22T14:59:29.027Z,2.17
2018-01-22T15:01:35.268Z,2.70
2018-01-22T15:03:41.451Z,2.00
2018-01-22T15:05:48.373Z,2.10
2018-01-22T15:07:54.330Z,2.00
2018-01-22T15:10:00.950Z,1.70
2018-01-22T15:12:07.014Z,2.00
2018-01-22T15:14:14.131Z,1.97
2018-01-22T15:16:20.224Z,2.00
2018-01-22T15:18:25.946Z,1.80
2018-01-22T15:20:31.947Z,1.90
2018-01-22T15:22:39.756Z,1.80
2018-01-22T15:24:45.986Z,94.20
2018-01-22T15:26:53.016Z,8.70
2018-01-22T15:28:59.247Z,19.83
2018-01-22T15:31:07.108Z,5.37
2018-01-22T15:33:13.734Z,3.80
2018-01-22T15:35:20.088Z,189.90
2018-01-22T15:37:28.696Z,123.97
2018-01-22T15:39:36.035Z,414.80
2018-01-22T15:41:42.974Z,5.40
2018-01-22T15:43:50.423Z,619.60
2018-01-22T15:45:59.282Z,21.00
2018-01-22T15:48:11.940Z,10.00
2018-01-22T15:50:31.748Z,15.83
2018-01-22T15:52:40.150Z,26.73
2018-01-22T15:54:47.188Z,13.37
2018-01-22T15:56:52.751Z,5.50
2018-01-22T15:58:58.755Z,479.53
2018-01-22T16:01:05.715Z,4.40
2018-01-22T16:03:13.567Z,5.43
2018-01-22T16:05:20.550Z,3.20
2018-01-22T16:07:30.272Z,3.10
2018-01-22T16:09:39.494Z,46.43
2018-01-22T16:11:48.433Z,2.93
2018-01-22T16:13:56.820Z,4.60
2018-01-22T16:16:03.544Z,8.53
2018-01-22T16:18:11.686Z,115.13
2018-01-22T16:20:19.176Z,3.60
2018-01-22T16:22:28.528Z,75.70
2018-01-22T16:24:34.581Z,27.87
2018-01-22T16:26:41.190Z,6.43
2018-01-22T16:28:47.280Z,5.90
2018-01-22T16:30:53.174Z,6.23
2018-01-22T16:33:00.299Z,4.00
2018-01-22T16:37:32.412Z,2.37
2018-01-22T16:39:38.389Z,28.37
2018-01-22T16:41:44.162Z,749.80
2018-01-22T16:43:50.066Z,14.20
2018-01-22T16:45:56.750Z,6.17
2018-01-22T16:48:03.666Z,3.67
2018-01-22T16:50:12.552Z,7.07
2018-01-22T16:52:22.212Z,3.33
2018-01-22T16:54:53.429Z,19.80
2018-01-22T16:57:00.367Z,120.27
2018-01-22T16:59:11.522Z,18.53
2018-01-22T17:01:19.459Z,5.90
2018-01-22T17:06:05.692Z,19.10
2018-01-22T17:08:14.755Z,11.80
2018-01-22T17:10:27.600Z,22.00
2018-01-22T17:12:35.849Z,4.30
2018-01-22T17:14:42.904Z,75.80
2018-01-22T17:16:54.980Z,779.10
2018-01-22T17:19:02.564Z,19.20
2018-01-22T17:21:08.812Z,6.63
2018-01-22T17:23:15.876Z,4.60
2018-01-22T17:25:24.195Z,4.20
2018-01-22T17:27:32.648Z,3.63
2018-01-22T17:29:39.259Z,3.60
2018-01-22T17:31:45.941Z,3.40
2018-01-22T17:33:52.361Z,3.37
2018-01-22T17:35:58.491Z,3.00
2018-01-22T17:38:05.419Z,3.47
2018-01-22T17:40:14.797Z,3.47
2018-01-22T17:44:35.980Z,3.60
2018-01-22T17:46:44.001Z,3.90
2018-01-22T17:48:51.737Z,3.37
2018-01-22T17:51:06.473Z,3.77
2018-01-22T17:53:12.802Z,3.60
2018-01-22T17:55:19.311Z,2.97
2018-01-22T17:57:25.564Z,3.57
2018-01-22T17:59:36.480Z,3.70
2018-01-22T18:01:43.672Z,3.67
2018-01-22T18:03:51.323Z,3.50
2018-01-22T18:06:00.645Z,3.87
2018-01-22T18:08:06.813Z,3.90
2018-01-22T18:10:16.924Z,3.70
2018-01-22T18:12:22.983Z,3.70
2018-01-22T18:14:30.909Z,3.90
2018-01-22T18:16:37.193Z,3.40
2018-01-22T18:18:47.044Z,3.90
2018-01-22T18:20:56.718Z,3.43
2018-01-22T18:23:05.406Z,3.57
2018-01-22T18:25:11.499Z,3.00
2018-01-22T18:27:17.818Z,3.23
2018-01-22T18:29:32.701Z,3.40
2018-01-22T18:31:44.416Z,3.73
2018-01-22T18:34:00.012Z,3.57
2018-01-22T18:36:07.143Z,3.53
2018-01-22T18:38:16.292Z,3.40
2018-01-22T18:40:23.199Z,3.63
2018-01-22T18:42:32.694Z,3.43
2018-01-22T18:44:43.460Z,3.70
2018-01-22T18:46:52.347Z,3.67
2018-01-22T18:49:01.941Z,3.60
2018-01-22T18:51:08.885Z,3.30
2018-01-22T18:53:15.301Z,3.13
2018-01-22T18:55:26.929Z,3.70
2018-01-22T18:57:32.885Z,3.40
2018-01-22T18:59:39.402Z,155.43
2018-01-22T19:01:46.635Z,589.67
2018-01-22T19:03:53.794Z,775.77
2018-01-22T19:06:01.179Z,467.53
2018-01-22T19:08:08.680Z,288.70
2018-01-22T19:10:15.351Z,239.47
2018-01-22T19:12:22.412Z,210.23
2018-01-22T19:17:00.379Z,194.10
2018-01-22T19:19:15.852Z,179.33
2018-01-22T19:21:22.201Z,173.80
2018-01-22T19:23:30.602Z,161.40
2018-01-22T19:25:36.546Z,154.00
2018-01-22T19:27:42.717Z,148.40
2018-01-22T19:29:49.388Z,144.37
2018-01-22T19:31:55.682Z,137.70
2018-01-22T19:34:01.904Z,133.87
2018-01-22T19:36:08.701Z,554.93
2018-01-22T19:38:15.619Z,804.33
2018-01-22T19:40:22.253Z,366.83
2018-01-22T19:42:30.274Z,446.67
2018-01-22T19:44:40.329Z,407.00
2018-01-22T19:46:47.544Z,426.67
2018-01-22T19:48:53.759Z,396.23
2018-01-22T19:50:59.883Z,373.90
2018-01-22T19:53:06.686Z,350.43
2018-01-22T19:55:22.791Z,343.97
2018-01-22T19:57:33.115Z,331.27
2018-01-22T19:59:41.673Z,314.93
2018-01-22T20:01:49.523Z,309.33
2018-01-22T20:03:57.827Z,297.63
2018-01-22T20:06:08.323Z,303.40
2018-01-22T20:08:15.281Z,291.30
2018-01-22T20:10:22.430Z,278.83
2018-01-22T20:12:34.899Z,661.87
2018-01-22T20:14:52.646Z,816.70
2018-01-22T20:17:08.395Z,673.87
2018-01-22T20:24:13.666Z,415.97
2018-01-22T20:26:28.919Z,452.37
2018-01-22T20:28:45.906Z,456.07
2018-01-22T20:31:00.964Z,441.47
2018-01-22T20:33:12.730Z,429.67
2018-01-22T20:37:56.774Z,410.10
2018-01-22T20:42:35.735Z,399.70
2018-01-22T20:44:43.353Z,383.03
2018-01-22T20:46:52.722Z,376.53
2018-01-22T20:49:03.367Z,368.33
2018-01-22T20:51:10.116Z,361.37
2018-01-22T20:53:18.129Z,352.07
2018-01-22T20:55:28.765Z,355.77
2018-01-22T20:57:36.775Z,351.47
2018-01-22T20:59:43.307Z,332.60
2018-01-22T21:01:53.513Z,329.20
2018-01-22T21:04:01.324Z,322.70
2018-01-22T21:06:07.450Z,322.83
2018-01-22T21:08:13.897Z,321.63
2018-01-22T21:10:20.844Z,311.40
2018-01-22T21:12:31.512Z,302.90
2018-01-22T21:14:37.413Z,300.30
2018-01-22T21:16:43.437Z,295.83
2018-01-22T21:18:51.002Z,284.53
2018-01-22T21:21:02.425Z,287.03
2018-01-22T21:23:10.198Z,382.90
2018-01-22T21:25:18.919Z,721.90
2018-01-22T21:27:30.848Z,556.23
2018-01-22T21:29:42.791Z,462.00
2018-01-22T21:31:51.258Z,449.73
2018-01-22T21:34:04.880Z,452.57
2018-01-22T21:36:14.624Z,448.30
2018-01-22T21:38:25.350Z,443.83
2018-01-22T21:40:34.973Z,437.23
2018-01-22T21:42:42.479Z,601.27
2018-01-22T21:44:50.219Z,644.20
2018-01-22T21:46:58.067Z,628.53
2018-01-22T21:49:04.148Z,633.13
2018-01-22T21:51:10.627Z,592.57
2018-01-22T21:53:16.491Z,582.00
2018-01-22T21:55:22.693Z,560.33
2018-01-22T21:57:33.077Z,566.47
2018-01-22T21:59:40.835Z,540.53
2018-01-22T22:01:47.104Z,535.23
2018-01-22T22:03:53.619Z,531.73
2018-01-22T22:05:59.658Z,514.17
2018-01-22T22:08:07.001Z,507.57
2018-01-22T22:10:13.895Z,495.90
2018-01-22T22:12:21.717Z,493.97
2018-01-22T22:14:32.281Z,483.73
2018-01-22T22:16:42.997Z,479.93
2018-01-22T22:18:55.498Z,468.87
2018-01-22T22:21:03.580Z,468.63
2018-01-22T22:23:10.964Z,463.50
2018-01-22T22:25:17.219Z,444.43
2018-01-22T22:27:31.714Z,437.30
2018-01-22T22:29:40.651Z,428.47
2018-01-22T22:31:46.456Z,424.30
2018-01-22T22:33:52.804Z,412.97
2018-01-22T22:36:00.660Z,406.57
2018-01-22T22:38:09.537Z,395.30
2018-01-22T22:40:17.290Z,400.63
2018-01-22T22:42:27.479Z,393.63
2018-01-22T22:44:35.062Z,382.43
2018-01-22T22:52:26.946Z,353.47
2018-01-22T22:54:34.287Z,354.73
2018-01-22T22:56:41.623Z,797.70
2018-01-22T22:58:48.687Z,834.43
2018-01-22T23:00:55.669Z,614.20
2018-01-22T23:03:03.644Z,488.03
2018-01-22T23:07:46.368Z,520.50
2018-01-22T23:09:52.375Z,521.13
2018-01-22T23:12:00.153Z,510.03
2018-01-22T23:14:06.829Z,511.67
2018-01-22T23:16:14.910Z,489.67
2018-01-22T23:18:21.384Z,494.47
2018-01-22T23:20:29.559Z,477.50
2018-01-22T23:22:36.621Z,477.37
2018-01-22T23:24:46.232Z,474.57
2018-01-22T23:26:57.578Z,461.20
2018-01-22T23:29:04.473Z,456.27
2018-01-22T23:31:10.764Z,445.80
2018-01-22T23:33:17.189Z,436.83
2018-01-22T23:35:23.339Z,622.73
2018-01-22T23:37:32.426Z,633.47
2018-01-22T23:39:42.479Z,621.83
2018-01-22T23:41:51.339Z,592.50
2018-01-22T23:43:58.333Z,582.40
2018-01-22T23:46:12.945Z,566.27
2018-01-22T23:48:20.081Z,558.07
2018-01-22T23:50:28.852Z,558.97
2018-01-22T23:52:36.434Z,551.83
2018-01-22T23:54:43.108Z,539.10
2018-01-22T23:56:56.266Z,528.90
2018-01-22T23:59:02.396Z,509.77
